sensor_id;sensor_type;location;lat;lon;timestamp;P1;durP1;ratioP1;P2;durP2;ratioP2
75139;SDS011;63714;55.812;37.658;2023-02-28T00:00:25;6.28;;;2.85;;
75139;SDS011;63714;55.812;37.658;2023-02-28T00:02:50;6.35;;;2.75;;
75139;SDS011;63714;55.812;37.658;2023-02-28T00:05:18;7.28;;;3.17;;
75139;SDS011;63714;55.812;37.658;2023-02-28T00:07:45;5.65;;;3.08;;
75139;SDS011;63714;55.812;37.658;2023-02-28T00:10:12;7.55;;;3.08;;
75139;SDS011;63714;55.812;37.658;2023-02-28T00:12:39;3.75;;;2.20;;
75139;SDS011;63714;55.812;37.658;2023-02-28T00:15:07;5.60;;;2.50;;
75139;SDS011;63714;55.812;37.658;2023-02-28T00:17:33;6.22;;;2.80;;
75139;SDS011;63714;55.812;37.658;2023-02-28T00:19:59;3.92;;;2.80;;
75139;SDS011;63714;55.812;37.658;2023-02-28T00:22:29;4.80;;;2.50;;
75139;SDS011;63714;55.812;37.658;2023-02-28T00:24:55;4.55;;;2.53;;
75139;SDS011;63714;55.812;37.658;2023-02-28T00:27:21;5.97;;;2.83;;
75139;SDS011;63714;55.812;37.658;2023-02-28T00:29:46;5.57;;;2.67;;
75139;SDS011;63714;55.812;37.658;2023-02-28T00:32:12;6.18;;;3.03;;
75139;SDS011;63714;55.812;37.658;2023-02-28T00:34:38;5.75;;;3.40;;
75139;SDS011;63714;55.812;37.658;2023-02-28T00:37:05;5.82;;;3.03;;
75139;SDS011;63714;55.812;37.658;2023-02-28T00:39:32;6.93;;;3.10;;
75139;SDS011;63714;55.812;37.658;2023-02-28T00:41:59;8.13;;;3.17;;
75139;SDS011;63714;55.812;37.658;2023-02-28T00:44:25;5.55;;;3.00;;
75139;SDS011;63714;55.812;37.658;2023-02-28T00:46:50;7.68;;;3.47;;
75139;SDS011;63714;55.812;37.658;2023-02-28T00:49:17;7.57;;;3.85;;
75139;SDS011;63714;55.812;37.658;2023-02-28T00:51:43;4.65;;;2.58;;
75139;SDS011;63714;55.812;37.658;2023-02-28T00:54:08;5.93;;;3.28;;
75139;SDS011;63714;55.812;37.658;2023-02-28T00:56:34;5.70;;;2.97;;
75139;SDS011;63714;55.812;37.658;2023-02-28T00:58:59;6.45;;;2.97;;
75139;SDS011;63714;55.812;37.658;2023-02-28T01:01:25;9.15;;;3.25;;
75139;SDS011;63714;55.812;37.658;2023-02-28T01:03:50;5.80;;;2.95;;
75139;SDS011;63714;55.812;37.658;2023-02-28T01:06:16;4.95;;;2.70;;
75139;SDS011;63714;55.812;37.658;2023-02-28T01:08:41;7.53;;;3.20;;
75139;SDS011;63714;55.812;37.658;2023-02-28T01:11:11;6.50;;;2.70;;
75139;SDS011;63714;55.812;37.658;2023-02-28T01:13:38;4.78;;;2.55;;
75139;SDS011;63714;55.812;37.658;2023-02-28T01:16:04;4.95;;;2.42;;
75139;SDS011;63714;55.812;37.658;2023-02-28T01:18:30;7.18;;;3.22;;
75139;SDS011;63714;55.812;37.658;2023-02-28T01:20:55;7.75;;;3.38;;
75139;SDS011;63714;55.812;37.658;2023-02-28T01:23:21;6.15;;;3.00;;
75139;SDS011;63714;55.812;37.658;2023-02-28T01:25:51;4.88;;;2.67;;
75139;SDS011;63714;55.812;37.658;2023-02-28T01:28:18;4.75;;;2.25;;
75139;SDS011;63714;55.812;37.658;2023-02-28T01:30:47;7.35;;;3.08;;
75139;SDS011;63714;55.812;37.658;2023-02-28T01:33:14;6.03;;;3.15;;
75139;SDS011;63714;55.812;37.658;2023-02-28T01:35:40;4.75;;;2.97;;
75139;SDS011;63714;55.812;37.658;2023-02-28T01:38:05;5.53;;;2.22;;
75139;SDS011;63714;55.812;37.658;2023-02-28T01:40:31;3.83;;;2.17;;
75139;SDS011;63714;55.812;37.658;2023-02-28T01:42:56;5.90;;;2.58;;
75139;SDS011;63714;55.812;37.658;2023-02-28T01:45:26;5.25;;;2.70;;
75139;SDS011;63714;55.812;37.658;2023-02-28T01:47:58;3.95;;;1.73;;
75139;SDS011;63714;55.812;37.658;2023-02-28T01:50:30;5.43;;;2.67;;
75139;SDS011;63714;55.812;37.658;2023-02-28T01:53:00;5.30;;;2.60;;
75139;SDS011;63714;55.812;37.658;2023-02-28T01:55:29;4.30;;;2.28;;
75139;SDS011;63714;55.812;37.658;2023-02-28T01:57:58;4.60;;;2.03;;
75139;SDS011;63714;55.812;37.658;2023-02-28T02:00:27;4.53;;;2.00;;
75139;SDS011;63714;55.812;37.658;2023-02-28T02:02:56;3.92;;;2.25;;
75139;SDS011;63714;55.812;37.658;2023-02-28T02:07:52;5.55;;;2.97;;
75139;SDS011;63714;55.812;37.658;2023-02-28T02:10:26;6.03;;;2.88;;
75139;SDS011;63714;55.812;37.658;2023-02-28T02:32:43;5.15;;;2.63;;
75139;SDS011;63714;55.812;37.658;2023-02-28T02:35:29;7.20;;;2.53;;
75139;SDS011;63714;55.812;37.658;2023-02-28T02:38:18;5.45;;;2.55;;
75139;SDS011;63714;55.812;37.658;2023-02-28T02:43:30;4.53;;;2.47;;
75139;SDS011;63714;55.812;37.658;2023-02-28T02:46:03;4.18;;;2.10;;
75139;SDS011;63714;55.812;37.658;2023-02-28T02:48:32;4.50;;;2.30;;
75139;SDS011;63714;55.812;37.658;2023-02-28T02:51:03;3.63;;;2.15;;
75139;SDS011;63714;55.812;37.658;2023-02-28T02:53:38;4.55;;;2.17;;
75139;SDS011;63714;55.812;37.658;2023-02-28T02:56:11;14.02;;;4.93;;
75139;SDS011;63714;55.812;37.658;2023-02-28T02:58:40;4.88;;;2.45;;
75139;SDS011;63714;55.812;37.658;2023-02-28T03:01:10;5.97;;;2.20;;
75139;SDS011;63714;55.812;37.658;2023-02-28T03:03:38;4.75;;;2.53;;
75139;SDS011;63714;55.812;37.658;2023-02-28T03:06:04;5.00;;;2.03;;
75139;SDS011;63714;55.812;37.658;2023-02-28T03:08:34;6.20;;;2.88;;
75139;SDS011;63714;55.812;37.658;2023-02-28T03:11:03;5.38;;;2.10;;
75139;SDS011;63714;55.812;37.658;2023-02-28T03:26:43;7.65;;;3.28;;
75139;SDS011;63714;55.812;37.658;2023-02-28T03:29:18;4.43;;;2.40;;
75139;SDS011;63714;55.812;37.658;2023-02-28T03:31:57;7.53;;;2.67;;
75139;SDS011;63714;55.812;37.658;2023-02-28T03:34:49;5.15;;;3.00;;
75139;SDS011;63714;55.812;37.658;2023-02-28T03:37:23;6.07;;;3.03;;
75139;SDS011;63714;55.812;37.658;2023-02-28T03:40:01;5.15;;;2.55;;
75139;SDS011;63714;55.812;37.658;2023-02-28T03:42:33;8.00;;;3.22;;
75139;SDS011;63714;55.812;37.658;2023-02-28T03:45:02;5.28;;;2.13;;
75139;SDS011;63714;55.812;37.658;2023-02-28T03:47:35;7.85;;;2.80;;
75139;SDS011;63714;55.812;37.658;2023-02-28T03:56:07;5.28;;;2.50;;
75139;SDS011;63714;55.812;37.658;2023-02-28T03:58:41;6.28;;;2.90;;
75139;SDS011;63714;55.812;37.658;2023-02-28T04:01:35;4.32;;;2.83;;
75139;SDS011;63714;55.812;37.658;2023-02-28T04:04:02;4.30;;;2.58;;
75139;SDS011;63714;55.812;37.658;2023-02-28T04:06:30;6.22;;;2.15;;
75139;SDS011;63714;55.812;37.658;2023-02-28T04:08:57;6.13;;;2.95;;
75139;SDS011;63714;55.812;37.658;2023-02-28T04:11:23;5.45;;;2.53;;
75139;SDS011;63714;55.812;37.658;2023-02-28T04:14:04;7.75;;;2.80;;
75139;SDS011;63714;55.812;37.658;2023-02-28T04:16:32;4.32;;;1.90;;
75139;SDS011;63714;55.812;37.658;2023-02-28T04:18:59;3.75;;;2.33;;
75139;SDS011;63714;55.812;37.658;2023-02-28T04:21:31;4.53;;;2.65;;
75139;SDS011;63714;55.812;37.658;2023-02-28T04:23:59;4.38;;;2.35;;
75139;SDS011;63714;55.812;37.658;2023-02-28T04:26:32;4.25;;;1.80;;
75139;SDS011;63714;55.812;37.658;2023-02-28T04:29:00;4.93;;;2.28;;
75139;SDS011;63714;55.812;37.658;2023-02-28T04:31:27;3.80;;;2.10;;
75139;SDS011;63714;55.812;37.658;2023-02-28T04:33:52;6.60;;;2.33;;
75139;SDS011;63714;55.812;37.658;2023-02-28T04:36:18;3.80;;;2.50;;
75139;SDS011;63714;55.812;37.658;2023-02-28T04:38:44;5.35;;;2.20;;
75139;SDS011;63714;55.812;37.658;2023-02-28T04:41:11;5.45;;;2.38;;
75139;SDS011;63714;55.812;37.658;2023-02-28T04:43:37;3.40;;;2.22;;
75139;SDS011;63714;55.812;37.658;2023-02-28T04:46:03;4.32;;;1.90;;
75139;SDS011;63714;55.812;37.658;2023-02-28T04:48:31;6.22;;;2.40;;
75139;SDS011;63714;55.812;37.658;2023-02-28T04:51:06;3.92;;;2.13;;
75139;SDS011;63714;55.812;37.658;2023-02-28T04:53:47;4.32;;;1.80;;
75139;SDS011;63714;55.812;37.658;2023-02-28T04:56:14;2.95;;;1.67;;
75139;SDS011;63714;55.812;37.658;2023-02-28T04:58:42;1.90;;;0.90;;
75139;SDS011;63714;55.812;37.658;2023-02-28T05:01:21;6.05;;;2.80;;
75139;SDS011;63714;55.812;37.658;2023-02-28T05:03:52;4.00;;;1.70;;
75139;SDS011;63714;55.812;37.658;2023-02-28T05:06:19;4.43;;;1.80;;
75139;SDS011;63714;55.812;37.658;2023-02-28T05:08:46;3.35;;;1.70;;
75139;SDS011;63714;55.812;37.658;2023-02-28T05:11:19;3.13;;;1.63;;
75139;SDS011;63714;55.812;37.658;2023-02-28T05:13:48;2.80;;;1.38;;
75139;SDS011;63714;55.812;37.658;2023-02-28T05:16:15;6.70;;;1.80;;
75139;SDS011;63714;55.812;37.658;2023-02-28T05:18:41;3.67;;;1.85;;
75139;SDS011;63714;55.812;37.658;2023-02-28T05:21:29;3.45;;;1.58;;
75139;SDS011;63714;55.812;37.658;2023-02-28T05:23:58;2.75;;;1.52;;
75139;SDS011;63714;55.812;37.658;2023-02-28T05:26:26;4.35;;;1.92;;
75139;SDS011;63714;55.812;37.658;2023-02-28T05:28:53;3.20;;;1.55;;
75139;SDS011;63714;55.812;37.658;2023-02-28T05:31:19;3.15;;;1.80;;
75139;SDS011;63714;55.812;37.658;2023-02-28T05:33:45;4.85;;;1.90;;
75139;SDS011;63714;55.812;37.658;2023-02-28T05:36:11;3.22;;;1.63;;
75139;SDS011;63714;55.812;37.658;2023-02-28T05:38:36;3.25;;;1.90;;
75139;SDS011;63714;55.812;37.658;2023-02-28T05:41:06;4.85;;;1.88;;
75139;SDS011;63714;55.812;37.658;2023-02-28T05:43:33;3.50;;;1.30;;
75139;SDS011;63714;55.812;37.658;2023-02-28T05:46:01;2.47;;;1.40;;
75139;SDS011;63714;55.812;37.658;2023-02-28T05:48:27;2.65;;;1.58;;
75139;SDS011;63714;55.812;37.658;2023-02-28T05:50:53;3.67;;;1.50;;
75139;SDS011;63714;55.812;37.658;2023-02-28T05:53:18;4.38;;;2.03;;
75139;SDS011;63714;55.812;37.658;2023-02-28T05:55:44;4.45;;;2.03;;
75139;SDS011;63714;55.812;37.658;2023-02-28T05:58:09;3.72;;;2.13;;
75139;SDS011;63714;55.812;37.658;2023-02-28T06:00:35;3.75;;;2.47;;
75139;SDS011;63714;55.812;37.658;2023-02-28T06:03:00;3.38;;;1.90;;
75139;SDS011;63714;55.812;37.658;2023-02-28T06:05:27;2.75;;;1.48;;
75139;SDS011;63714;55.812;37.658;2023-02-28T06:07:53;5.78;;;1.63;;
75139;SDS011;63714;55.812;37.658;2023-02-28T06:10:18;3.75;;;1.83;;
75139;SDS011;63714;55.812;37.658;2023-02-28T06:12:44;2.67;;;1.75;;
75139;SDS011;63714;55.812;37.658;2023-02-28T06:15:11;2.75;;;1.45;;
75139;SDS011;63714;55.812;37.658;2023-02-28T06:17:39;4.57;;;2.10;;
75139;SDS011;63714;55.812;37.658;2023-02-28T06:20:06;2.92;;;2.10;;
75139;SDS011;63714;55.812;37.658;2023-02-28T06:22:34;3.22;;;2.00;;
75139;SDS011;63714;55.812;37.658;2023-02-28T06:25:01;3.40;;;1.88;;
75139;SDS011;63714;55.812;37.658;2023-02-28T06:27:28;3.65;;;1.70;;
75139;SDS011;63714;55.812;37.658;2023-02-28T06:29:54;3.60;;;2.03;;
75139;SDS011;63714;55.812;37.658;2023-02-28T06:32:21;5.05;;;2.83;;
75139;SDS011;63714;55.812;37.658;2023-02-28T06:34:47;3.97;;;1.60;;
75139;SDS011;63714;55.812;37.658;2023-02-28T06:37:12;4.40;;;1.67;;
75139;SDS011;63714;55.812;37.658;2023-02-28T06:39:38;1.90;;;1.38;;
75139;SDS011;63714;55.812;37.658;2023-02-28T06:42:04;3.30;;;1.67;;
75139;SDS011;63714;55.812;37.658;2023-02-28T06:44:29;4.15;;;1.83;;
75139;SDS011;63714;55.812;37.658;2023-02-28T06:47:00;3.90;;;1.70;;
75139;SDS011;63714;55.812;37.658;2023-02-28T06:49:28;2.92;;;1.65;;
75139;SDS011;63714;55.812;37.658;2023-02-28T06:51:55;4.53;;;1.73;;
75139;SDS011;63714;55.812;37.658;2023-02-28T06:54:20;3.88;;;2.20;;
75139;SDS011;63714;55.812;37.658;2023-02-28T06:56:46;4.07;;;1.88;;
75139;SDS011;63714;55.812;37.658;2023-02-28T06:59:12;3.88;;;2.10;;
75139;SDS011;63714;55.812;37.658;2023-02-28T07:01:39;4.78;;;2.00;;
75139;SDS011;63714;55.812;37.658;2023-02-28T07:04:05;4.28;;;2.38;;
75139;SDS011;63714;55.812;37.658;2023-02-28T07:06:32;5.32;;;1.90;;
75139;SDS011;63714;55.812;37.658;2023-02-28T07:08:57;2.50;;;1.48;;
75139;SDS011;63714;55.812;37.658;2023-02-28T07:11:24;4.80;;;1.70;;
75139;SDS011;63714;55.812;37.658;2023-02-28T07:13:51;2.50;;;1.48;;
75139;SDS011;63714;55.812;37.658;2023-02-28T07:16:21;3.28;;;1.80;;
75139;SDS011;63714;55.812;37.658;2023-02-28T07:18:48;3.28;;;2.03;;
75139;SDS011;63714;55.812;37.658;2023-02-28T07:21:14;4.38;;;1.95;;
75139;SDS011;63714;55.812;37.658;2023-02-28T07:23:40;3.45;;;1.67;;
75139;SDS011;63714;55.812;37.658;2023-02-28T07:26:14;4.05;;;2.03;;
75139;SDS011;63714;55.812;37.658;2023-02-28T07:28:42;3.53;;;1.75;;
75139;SDS011;63714;55.812;37.658;2023-02-28T07:31:09;3.65;;;1.48;;
75139;SDS011;63714;55.812;37.658;2023-02-28T07:33:35;5.93;;;1.88;;
75139;SDS011;63714;55.812;37.658;2023-02-28T07:36:02;3.33;;;1.83;;
75139;SDS011;63714;55.812;37.658;2023-02-28T07:38:29;4.47;;;2.03;;
75139;SDS011;63714;55.812;37.658;2023-02-28T07:40:58;4.72;;;2.22;;
75139;SDS011;63714;55.812;37.658;2023-02-28T07:43:26;4.45;;;1.98;;
75139;SDS011;63714;55.812;37.658;2023-02-28T07:45:52;5.50;;;2.58;;
75139;SDS011;63714;55.812;37.658;2023-02-28T07:48:17;4.72;;;2.40;;
75139;SDS011;63714;55.812;37.658;2023-02-28T07:50:43;4.50;;;2.10;;
75139;SDS011;63714;55.812;37.658;2023-02-28T07:53:20;5.53;;;2.78;;
75139;SDS011;63714;55.812;37.658;2023-02-28T07:55:46;7.03;;;2.88;;
75139;SDS011;63714;55.812;37.658;2023-02-28T07:58:11;6.50;;;3.40;;
75139;SDS011;63714;55.812;37.658;2023-02-28T08:00:37;6.20;;;3.30;;
75139;SDS011;63714;55.812;37.658;2023-02-28T08:03:02;5.43;;;2.90;;
75139;SDS011;63714;55.812;37.658;2023-02-28T08:05:28;8.18;;;3.05;;
75139;SDS011;63714;55.812;37.658;2023-02-28T08:07:55;6.90;;;2.53;;
75139;SDS011;63714;55.812;37.658;2023-02-28T08:10:20;3.03;;;2.10;;
75139;SDS011;63714;55.812;37.658;2023-02-28T08:12:46;3.38;;;1.73;;
75139;SDS011;63714;55.812;37.658;2023-02-28T08:15:12;5.22;;;2.15;;
75139;SDS011;63714;55.812;37.658;2023-02-28T08:17:37;2.88;;;1.58;;
75139;SDS011;63714;55.812;37.658;2023-02-28T08:20:03;4.70;;;1.92;;
75139;SDS011;63714;55.812;37.658;2023-02-28T08:22:29;4.75;;;2.15;;
75139;SDS011;63714;55.812;37.658;2023-02-28T08:24:55;4.18;;;2.08;;
75139;SDS011;63714;55.812;37.658;2023-02-28T08:27:21;4.32;;;1.90;;
75139;SDS011;63714;55.812;37.658;2023-02-28T08:29:46;4.40;;;2.10;;
75139;SDS011;63714;55.812;37.658;2023-02-28T08:32:12;4.22;;;2.05;;
75139;SDS011;63714;55.812;37.658;2023-02-28T08:34:40;4.00;;;1.60;;
75139;SDS011;63714;55.812;37.658;2023-02-28T08:37:06;3.90;;;2.17;;
75139;SDS011;63714;55.812;37.658;2023-02-28T08:39:34;3.65;;;1.95;;
75139;SDS011;63714;55.812;37.658;2023-02-28T08:42:04;3.10;;;1.88;;
75139;SDS011;63714;55.812;37.658;2023-02-28T08:44:29;6.47;;;1.65;;
75139;SDS011;63714;55.812;37.658;2023-02-28T08:46:55;3.47;;;1.60;;
75139;SDS011;63714;55.812;37.658;2023-02-28T08:49:21;3.65;;;2.13;;
75139;SDS011;63714;55.812;37.658;2023-02-28T08:51:47;4.18;;;2.13;;
75139;SDS011;63714;55.812;37.658;2023-02-28T08:54:12;5.53;;;2.72;;
75139;SDS011;63714;55.812;37.658;2023-02-28T08:56:39;4.47;;;2.25;;
75139;SDS011;63714;55.812;37.658;2023-02-28T08:59:05;4.10;;;2.30;;
75139;SDS011;63714;55.812;37.658;2023-02-28T09:01:30;3.28;;;1.80;;
75139;SDS011;63714;55.812;37.658;2023-02-28T09:03:57;3.15;;;1.70;;
75139;SDS011;63714;55.812;37.658;2023-02-28T09:06:25;6.95;;;2.17;;
75139;SDS011;63714;55.812;37.658;2023-02-28T09:08:51;5.80;;;2.10;;
75139;SDS011;63714;55.812;37.658;2023-02-28T09:11:18;4.15;;;1.85;;
75139;SDS011;63714;55.812;37.658;2023-02-28T09:13:44;6.47;;;2.20;;
75139;SDS011;63714;55.812;37.658;2023-02-28T09:16:11;3.53;;;1.60;;
75139;SDS011;63714;55.812;37.658;2023-02-28T09:18:39;3.63;;;2.00;;
75139;SDS011;63714;55.812;37.658;2023-02-28T09:21:06;3.28;;;1.90;;
75139;SDS011;63714;55.812;37.658;2023-02-28T09:23:34;4.25;;;1.85;;
75139;SDS011;63714;55.812;37.658;2023-02-28T09:26:00;4.13;;;1.88;;
75139;SDS011;63714;55.812;37.658;2023-02-28T09:28:25;4.78;;;1.90;;
75139;SDS011;63714;55.812;37.658;2023-02-28T09:30:52;3.63;;;1.60;;
75139;SDS011;63714;55.812;37.658;2023-02-28T09:33:19;4.32;;;2.00;;
75139;SDS011;63714;55.812;37.658;2023-02-28T09:35:49;6.80;;;2.30;;
75139;SDS011;63714;55.812;37.658;2023-02-28T09:38:16;6.38;;;2.03;;
75139;SDS011;63714;55.812;37.658;2023-02-28T09:40:50;3.78;;;1.23;;
75139;SDS011;63714;55.812;37.658;2023-02-28T09:43:17;7.22;;;2.13;;
75139;SDS011;63714;55.812;37.658;2023-02-28T09:45:48;3.78;;;1.95;;
75139;SDS011;63714;55.812;37.658;2023-02-28T09:48:20;4.13;;;1.45;;
75139;SDS011;63714;55.812;37.658;2023-02-28T09:50:51;3.42;;;1.75;;
75139;SDS011;63714;55.812;37.658;2023-02-28T09:56:13;4.22;;;1.83;;
75139;SDS011;63714;55.812;37.658;2023-02-28T10:04:32;3.67;;;2.00;;
75139;SDS011;63714;55.812;37.658;2023-02-28T10:07:00;4.28;;;1.92;;
75139;SDS011;63714;55.812;37.658;2023-02-28T10:09:42;3.97;;;1.85;;
75139;SDS011;63714;55.812;37.658;2023-02-28T10:12:10;3.53;;;2.00;;
75139;SDS011;63714;55.812;37.658;2023-02-28T10:17:11;2.75;;;1.48;;
75139;SDS011;63714;55.812;37.658;2023-02-28T10:19:42;4.43;;;1.88;;
75139;SDS011;63714;55.812;37.658;2023-02-28T10:24:45;3.97;;;1.90;;
75139;SDS011;63714;55.812;37.658;2023-02-28T10:27:17;3.33;;;2.03;;
75139;SDS011;63714;55.812;37.658;2023-02-28T10:29:45;5.13;;;2.13;;
75139;SDS011;63714;55.812;37.658;2023-02-28T10:32:14;4.25;;;1.88;;
75139;SDS011;63714;55.812;37.658;2023-02-28T10:34:42;3.97;;;1.88;;
75139;SDS011;63714;55.812;37.658;2023-02-28T10:37:08;5.15;;;1.77;;
75139;SDS011;63714;55.812;37.658;2023-02-28T10:39:37;2.72;;;1.42;;
75139;SDS011;63714;55.812;37.658;2023-02-28T10:42:18;3.85;;;2.08;;
75139;SDS011;63714;55.812;37.658;2023-02-28T10:45:03;4.70;;;1.98;;
75139;SDS011;63714;55.812;37.658;2023-02-28T10:47:33;5.35;;;1.85;;
75139;SDS011;63714;55.812;37.658;2023-02-28T10:50:01;6.90;;;1.88;;
75139;SDS011;63714;55.812;37.658;2023-02-28T10:52:47;2.47;;;1.52;;
75139;SDS011;63714;55.812;37.658;2023-02-28T10:55:19;4.47;;;2.17;;
75139;SDS011;63714;55.812;37.658;2023-02-28T10:57:48;4.68;;;1.67;;
75139;SDS011;63714;55.812;37.658;2023-02-28T11:00:19;3.65;;;1.80;;
75139;SDS011;63714;55.812;37.658;2023-02-28T11:02:56;3.25;;;1.77;;
75139;SDS011;63714;55.812;37.658;2023-02-28T11:05:26;5.30;;;1.90;;
75139;SDS011;63714;55.812;37.658;2023-02-28T11:07:56;4.60;;;1.70;;
75139;SDS011;63714;55.812;37.658;2023-02-28T11:10:39;3.25;;;1.92;;
75139;SDS011;63714;55.812;37.658;2023-02-28T11:13:13;3.65;;;2.00;;
75139;SDS011;63714;55.812;37.658;2023-02-28T11:15:53;3.35;;;1.80;;
75139;SDS011;63714;55.812;37.658;2023-02-28T11:20:59;3.20;;;2.00;;
75139;SDS011;63714;55.812;37.658;2023-02-28T11:23:28;2.60;;;1.40;;
75139;SDS011;63714;55.812;37.658;2023-02-28T11:25:57;3.47;;;1.88;;
75139;SDS011;63714;55.812;37.658;2023-02-28T11:31:02;6.75;;;1.70;;
75139;SDS011;63714;55.812;37.658;2023-02-28T11:33:30;4.55;;;2.10;;
75139;SDS011;63714;55.812;37.658;2023-02-28T11:36:27;4.00;;;1.73;;
75139;SDS011;63714;55.812;37.658;2023-02-28T11:39:00;4.55;;;1.98;;
75139;SDS011;63714;55.812;37.658;2023-02-28T11:46:52;5.35;;;1.80;;
75139;SDS011;63714;55.812;37.658;2023-02-28T11:52:02;5.82;;;2.58;;
75139;SDS011;63714;55.812;37.658;2023-02-28T12:00:06;5.43;;;2.33;;
75139;SDS011;63714;55.812;37.658;2023-02-28T12:03:03;3.63;;;2.00;;
75139;SDS011;63714;55.812;37.658;2023-02-28T12:05:46;3.65;;;2.00;;
75139;SDS011;63714;55.812;37.658;2023-02-28T12:28:52;4.40;;;2.40;;
75139;SDS011;63714;55.812;37.658;2023-02-28T12:31:29;3.17;;;1.67;;
75139;SDS011;63714;55.812;37.658;2023-02-28T12:34:01;8.38;;;2.30;;
75139;SDS011;63714;55.812;37.658;2023-02-28T12:36:31;3.97;;;1.95;;
75139;SDS011;63714;55.812;37.658;2023-02-28T12:39:10;7.47;;;2.13;;
75139;SDS011;63714;55.812;37.658;2023-02-28T12:41:44;4.60;;;2.25;;
75139;SDS011;63714;55.812;37.658;2023-02-28T12:44:16;3.47;;;1.90;;
75139;SDS011;63714;55.812;37.658;2023-02-28T12:46:55;5.07;;;1.77;;
75139;SDS011;63714;55.812;37.658;2023-02-28T12:49:28;4.32;;;2.00;;
75139;SDS011;63714;55.812;37.658;2023-02-28T12:52:03;4.63;;;2.33;;
75139;SDS011;63714;55.812;37.658;2023-02-28T12:54:35;3.55;;;2.05;;
75139;SDS011;63714;55.812;37.658;2023-02-28T12:57:12;5.10;;;1.70;;
75139;SDS011;63714;55.812;37.658;2023-02-28T13:00:10;5.45;;;2.13;;
75139;SDS011;63714;55.812;37.658;2023-02-28T13:05:41;4.28;;;2.30;;
75139;SDS011;63714;55.812;37.658;2023-02-28T13:08:34;5.07;;;2.17;;
75139;SDS011;63714;55.812;37.658;2023-02-28T13:11:29;3.50;;;1.80;;
75139;SDS011;63714;55.812;37.658;2023-02-28T13:13:58;4.95;;;1.80;;
75139;SDS011;63714;55.812;37.658;2023-02-28T13:16:46;5.03;;;2.28;;
75139;SDS011;63714;55.812;37.658;2023-02-28T13:19:19;5.88;;;2.65;;
75139;SDS011;63714;55.812;37.658;2023-02-28T13:21:49;3.97;;;2.20;;
75139;SDS011;63714;55.812;37.658;2023-02-28T13:29:38;4.10;;;2.47;;
75139;SDS011;63714;55.812;37.658;2023-02-28T13:43:08;3.38;;;1.70;;
75139;SDS011;63714;55.812;37.658;2023-02-28T13:47:41;4.15;;;2.35;;
75139;SDS011;63714;55.812;37.658;2023-02-28T13:52:48;4.70;;;1.73;;
75139;SDS011;63714;55.812;37.658;2023-02-28T13:57:53;4.25;;;2.55;;
75139;SDS011;63714;55.812;37.658;2023-02-28T14:03:13;4.18;;;2.25;;
75139;SDS011;63714;55.812;37.658;2023-02-28T14:05:42;4.20;;;1.85;;
75139;SDS011;63714;55.812;37.658;2023-02-28T14:08:18;3.50;;;2.10;;
75139;SDS011;63714;55.812;37.658;2023-02-28T14:10:51;3.53;;;2.00;;
75139;SDS011;63714;55.812;37.658;2023-02-28T14:13:42;3.72;;;1.73;;
75139;SDS011;63714;55.812;37.658;2023-02-28T14:16:15;3.47;;;2.20;;
75139;SDS011;63714;55.812;37.658;2023-02-28T14:18:55;2.97;;;2.03;;
75139;SDS011;63714;55.812;37.658;2023-02-28T14:21:33;6.07;;;1.95;;
75139;SDS011;63714;55.812;37.658;2023-02-28T14:30:03;2.92;;;1.38;;
75139;SDS011;63714;55.812;37.658;2023-02-28T14:37:52;4.05;;;1.67;;
75139;SDS011;63714;55.812;37.658;2023-02-28T14:40:26;4.03;;;1.92;;
75139;SDS011;63714;55.812;37.658;2023-02-28T14:42:59;3.47;;;1.70;;
75139;SDS011;63714;55.812;37.658;2023-02-28T14:45:27;5.25;;;1.90;;
75139;SDS011;63714;55.812;37.658;2023-02-28T14:47:55;3.58;;;1.73;;
75139;SDS011;63714;55.812;37.658;2023-02-28T14:50:23;3.55;;;1.98;;
75139;SDS011;63714;55.812;37.658;2023-02-28T14:52:53;3.08;;;1.65;;
75139;SDS011;63714;55.812;37.658;2023-02-28T14:55:23;3.33;;;1.98;;
75139;SDS011;63714;55.812;37.658;2023-02-28T14:57:55;4.43;;;2.30;;
75139;SDS011;63714;55.812;37.658;2023-02-28T15:02:58;2.67;;;1.80;;
75139;SDS011;63714;55.812;37.658;2023-02-28T15:05:28;3.63;;;1.90;;
75139;SDS011;63714;55.812;37.658;2023-02-28T15:10:30;4.78;;;2.28;;
75139;SDS011;63714;55.812;37.658;2023-02-28T15:13:05;3.22;;;1.85;;
75139;SDS011;63714;55.812;37.658;2023-02-28T15:15:35;4.63;;;2.00;;
75139;SDS011;63714;55.812;37.658;2023-02-28T15:18:06;3.35;;;1.85;;
75139;SDS011;63714;55.812;37.658;2023-02-28T15:20:35;4.18;;;2.25;;
75139;SDS011;63714;55.812;37.658;2023-02-28T15:23:04;3.70;;;1.70;;
75139;SDS011;63714;55.812;37.658;2023-02-28T15:25:30;3.33;;;1.67;;
75139;SDS011;63714;55.812;37.658;2023-02-28T15:27:56;3.55;;;1.90;;
75139;SDS011;63714;55.812;37.658;2023-02-28T15:30:29;7.03;;;1.90;;
75139;SDS011;63714;55.812;37.658;2023-02-28T15:35:36;6.35;;;2.08;;
75139;SDS011;63714;55.812;37.658;2023-02-28T15:38:16;8.00;;;2.50;;
75139;SDS011;63714;55.812;37.658;2023-02-28T15:40:55;2.97;;;1.75;;
75139;SDS011;63714;55.812;37.658;2023-02-28T15:43:30;3.45;;;1.90;;
75139;SDS011;63714;55.812;37.658;2023-02-28T15:45:58;4.75;;;1.88;;
75139;SDS011;63714;55.812;37.658;2023-02-28T15:48:27;3.50;;;1.88;;
75139;SDS011;63714;55.812;37.658;2023-02-28T15:51:06;3.38;;;1.90;;
75139;SDS011;63714;55.812;37.658;2023-02-28T15:56:26;3.28;;;1.45;;
75139;SDS011;63714;55.812;37.658;2023-02-28T15:59:00;3.15;;;1.73;;
75139;SDS011;63714;55.812;37.658;2023-02-28T16:01:29;5.13;;;1.52;;
75139;SDS011;63714;55.812;37.658;2023-02-28T16:03:59;3.85;;;1.90;;
75139;SDS011;63714;55.812;37.658;2023-02-28T16:06:34;3.47;;;1.92;;
75139;SDS011;63714;55.812;37.658;2023-02-28T16:09:06;3.33;;;1.80;;
75139;SDS011;63714;55.812;37.658;2023-02-28T16:14:02;3.47;;;1.90;;
75139;SDS011;63714;55.812;37.658;2023-02-28T16:16:28;3.88;;;1.98;;
75139;SDS011;63714;55.812;37.658;2023-02-28T16:18:54;4.10;;;2.08;;
75139;SDS011;63714;55.812;37.658;2023-02-28T16:21:20;3.25;;;1.90;;
75139;SDS011;63714;55.812;37.658;2023-02-28T16:23:46;3.75;;;2.05;;
75139;SDS011;63714;55.812;37.658;2023-02-28T16:26:29;3.70;;;1.77;;
75139;SDS011;63714;55.812;37.658;2023-02-28T16:28:55;3.17;;;1.70;;
75139;SDS011;63714;55.812;37.658;2023-02-28T16:31:20;3.53;;;1.70;;
75139;SDS011;63714;55.812;37.658;2023-02-28T16:33:46;4.05;;;1.92;;
75139;SDS011;63714;55.812;37.658;2023-02-28T16:36:16;3.38;;;1.90;;
75139;SDS011;63714;55.812;37.658;2023-02-28T16:38:44;4.05;;;1.90;;
75139;SDS011;63714;55.812;37.658;2023-02-28T16:41:17;4.70;;;1.88;;
75139;SDS011;63714;55.812;37.658;2023-02-28T16:43:49;3.17;;;1.50;;
75139;SDS011;63714;55.812;37.658;2023-02-28T16:46:17;2.60;;;1.63;;
75139;SDS011;63714;55.812;37.658;2023-02-28T16:48:44;3.45;;;1.92;;
75139;SDS011;63714;55.812;37.658;2023-02-28T16:51:14;3.63;;;1.58;;
75139;SDS011;63714;55.812;37.658;2023-02-28T16:53:41;3.88;;;1.77;;
75139;SDS011;63714;55.812;37.658;2023-02-28T16:56:11;2.88;;;1.63;;
75139;SDS011;63714;55.812;37.658;2023-02-28T16:58:41;4.03;;;1.50;;
75139;SDS011;63714;55.812;37.658;2023-02-28T17:01:06;4.03;;;1.95;;
75139;SDS011;63714;55.812;37.658;2023-02-28T17:03:32;4.20;;;1.73;;
75139;SDS011;63714;55.812;37.658;2023-02-28T17:05:58;2.80;;;1.70;;
75139;SDS011;63714;55.812;37.658;2023-02-28T17:08:23;4.20;;;1.77;;
75139;SDS011;63714;55.812;37.658;2023-02-28T17:10:49;5.07;;;1.77;;
75139;SDS011;63714;55.812;37.658;2023-02-28T17:13:14;2.58;;;1.60;;
75139;SDS011;63714;55.812;37.658;2023-02-28T17:15:40;3.90;;;1.67;;
75139;SDS011;63714;55.812;37.658;2023-02-28T17:18:06;4.70;;;1.60;;